createdAt,value
2019-04-10T00:00:47.596Z,97319.13
2019-04-10T00:03:27.795Z,97320.80
2019-04-10T00:05:53.732Z,97321.73
2019-04-10T00:08:26.157Z,97315.69
2019-04-10T00:10:58.528Z,97316.88
2019-04-10T00:13:30.999Z,97319.45
2019-04-10T00:16:03.557Z,97324.42
2019-04-10T00:18:35.678Z,97319.16
2019-04-10T00:21:07.675Z,97321.86
2019-04-10T00:23:39.680Z,97325.78
2019-04-10T00:26:11.715Z,97325.09
2019-04-10T00:28:43.754Z,97324.14
2019-04-10T00:31:15.826Z,97330.75
2019-04-10T00:33:47.806Z,97328.92
2019-04-10T00:36:20.333Z,97326.52
2019-04-10T00:38:52.408Z,97326.55
2019-04-10T00:41:24.414Z,97332.69
2019-04-10T00:43:57.280Z,97327.34
2019-04-10T00:46:30.426Z,97337.17
2019-04-10T00:49:02.458Z,97334.86
2019-04-10T00:51:35.214Z,97324.20
2019-04-10T00:54:07.775Z,97330.59
2019-04-10T00:56:41.648Z,97331.31
2019-04-10T00:59:13.714Z,97330.25
2019-04-10T01:01:45.776Z,97328.91
2019-04-10T01:04:18.956Z,97329.56
2019-04-10T01:06:50.898Z,97329.88
2019-04-10T01:09:23.662Z,97330.50
2019-04-10T01:11:55.708Z,97326.10
2019-04-10T01:14:27.702Z,97322.67
2019-04-10T01:16:59.995Z,97317.27
2019-04-10T01:19:32.270Z,97317.83
2019-04-10T01:22:04.247Z,97315.89
2019-04-10T01:24:36.265Z,97320.42
2019-04-10T01:27:08.240Z,97309.91
2019-04-10T01:29:40.261Z,97309.91
2019-04-10T01:32:12.217Z,97312.61
2019-04-10T01:34:45.416Z,97322.57
2019-04-10T01:37:18.706Z,97315.72
2019-04-10T01:39:50.828Z,97315.72
2019-04-10T01:42:22.909Z,97313.58
2019-04-10T01:44:55.229Z,97315.48
2019-04-10T01:47:27.288Z,97307.91
2019-04-10T01:49:59.279Z,97310.72
2019-04-10T01:52:31.217Z,97307.92
2019-04-10T01:55:15.989Z,97299.86
2019-04-10T01:57:37.211Z,97307.38
2019-04-10T02:00:11.147Z,97306.30
2019-04-10T02:02:48.318Z,97301.34
2019-04-10T02:05:20.703Z,97303.50
2019-04-10T02:08:03.460Z,97305.33
2019-04-10T02:10:27.917Z,97306.05
2019-04-10T02:13:01.102Z,97301.35
2019-04-10T02:15:34.229Z,97298.95
2019-04-10T02:18:07.109Z,97297.99
2019-04-10T02:20:39.217Z,97299.83
2019-04-10T02:23:12.121Z,97295.90
2019-04-10T02:25:45.129Z,97292.02
2019-04-10T02:28:17.169Z,97300.13
2019-04-10T02:30:50.130Z,97291.92
2019-04-10T02:33:23.229Z,97288.13
2019-04-10T02:35:56.998Z,97288.13
2019-04-10T02:38:44.831Z,97286.86
2019-04-10T02:41:03.496Z,97289.63
2019-04-10T02:43:36.083Z,97294.16
2019-04-10T02:46:08.546Z,97294.01
2019-04-10T02:48:41.555Z,97287.01
2019-04-10T02:51:13.765Z,97294.50
2019-04-10T02:53:46.093Z,97292.61
2019-04-10T02:56:20.948Z,97287.10
2019-04-10T02:58:54.346Z,97287.00
2019-04-10T03:01:27.233Z,97286.23
2019-04-10T03:03:59.485Z,97292.27
2019-04-10T03:06:31.428Z,97288.28
2019-04-10T03:09:20.494Z,97292.41
2019-04-10T03:11:39.733Z,97291.39
2019-04-10T03:14:12.496Z,97294.97
2019-04-10T03:16:45.691Z,97292.36
2019-04-10T03:19:17.879Z,97287.97
2019-04-10T03:21:49.893Z,97287.56
2019-04-10T03:24:21.859Z,97291.70
2019-04-10T03:26:54.135Z,97284.29
2019-04-10T03:29:26.125Z,97282.55
2019-04-10T03:32:12.576Z,97283.98
2019-04-10T03:34:48.258Z,97289.49
2019-04-10T03:37:20.283Z,97282.71
2019-04-10T03:39:53.246Z,97289.86
2019-04-10T03:42:25.351Z,97284.39
2019-04-10T03:44:57.345Z,97284.95
2019-04-10T03:47:29.386Z,97290.52
2019-04-10T03:50:02.604Z,97286.38
2019-04-10T03:52:35.693Z,97291.23
2019-04-10T03:55:08.415Z,97286.53
2019-04-10T03:57:40.764Z,97286.84
2019-04-10T04:00:14.065Z,97287.41
2019-04-10T04:02:46.446Z,97287.81
2019-04-10T04:05:18.484Z,97289.55
2019-04-10T04:07:50.741Z,97284.29
2019-04-10T04:10:22.822Z,97286.78
2019-04-10T04:12:55.133Z,97291.01
2019-04-10T04:15:28.162Z,97292.91
2019-04-10T04:18:00.364Z,97294.34
2019-04-10T04:20:32.501Z,97289.80
2019-04-10T04:23:05.368Z,97293.88
2019-04-10T04:25:37.401Z,97286.84
2019-04-10T04:28:09.332Z,97292.43
2019-04-10T04:30:41.989Z,97289.47
2019-04-10T04:33:14.007Z,97289.30
2019-04-10T04:35:46.015Z,97294.66
2019-04-10T04:38:17.965Z,97294.81
2019-04-10T04:40:51.257Z,97297.02
2019-04-10T04:43:23.441Z,97299.66
2019-04-10T04:45:55.511Z,97301.95
2019-04-10T04:48:28.426Z,97303.97
2019-04-10T04:51:01.253Z,97303.56
2019-04-10T04:53:34.356Z,97313.09
2019-04-10T04:56:07.405Z,97312.33
2019-04-10T04:58:39.426Z,97310.34
2019-04-10T05:01:12.584Z,97313.60
2019-04-10T05:03:44.681Z,97313.83
2019-04-10T05:06:16.648Z,97315.81
2019-04-10T05:08:48.667Z,97319.09
2019-04-10T05:11:20.583Z,97324.13
2019-04-10T05:13:53.084Z,97319.96
2019-04-10T05:16:25.056Z,97330.66
2019-04-10T05:18:57.109Z,97330.82
2019-04-10T05:21:29.475Z,97329.08
2019-04-10T05:24:01.560Z,97328.58
2019-04-10T05:26:34.279Z,97328.84
2019-04-10T05:29:06.898Z,97332.02
2019-04-10T05:31:38.935Z,97328.45
2019-04-10T05:34:11.430Z,97333.00
2019-04-10T05:36:44.122Z,97340.65
2019-04-10T05:39:16.857Z,97337.05
2019-04-10T05:41:48.964Z,97339.80
2019-04-10T05:44:20.920Z,97337.14
2019-04-10T05:46:52.868Z,97336.27
2019-04-10T05:49:24.818Z,97338.89
2019-04-10T05:51:57.677Z,97342.09
2019-04-10T05:54:29.707Z,97341.29
2019-04-10T05:57:01.697Z,97345.78
2019-04-10T05:59:34.274Z,97342.82
2019-04-10T06:02:06.804Z,97342.48
2019-04-10T06:04:39.872Z,97349.58
2019-04-10T06:07:12.725Z,97340.44
2019-04-10T06:09:54.087Z,97340.44
2019-04-10T06:12:18.698Z,97350.95
2019-04-10T06:14:50.657Z,97352.30
2019-04-10T06:17:22.753Z,97356.94
2019-04-10T06:19:54.721Z,97357.96
2019-04-10T06:22:26.679Z,97351.63
2019-04-10T06:24:58.676Z,97345.09
2019-04-10T06:27:30.638Z,97356.73
2019-04-10T06:30:03.644Z,97356.73
2019-04-10T06:32:35.783Z,97340.84
2019-04-10T06:35:08.512Z,97355.25
2019-04-10T06:37:40.528Z,97355.25
2019-04-10T06:40:18.759Z,97348.44
2019-04-10T06:42:51.607Z,97348.44
2019-04-10T06:45:20.412Z,97342.59
2019-04-10T06:47:52.982Z,97343.84
2019-04-10T06:50:25.009Z,97340.84
2019-04-10T06:52:56.983Z,97341.14
2019-04-10T06:55:29.952Z,97340.47
2019-04-10T06:58:02.763Z,97346.95
2019-04-10T07:00:34.973Z,97346.95
2019-04-10T07:03:07.022Z,97344.95
2019-04-10T07:05:47.992Z,97334.30
2019-04-10T07:08:18.927Z,97334.30
2019-04-10T07:10:54.207Z,97344.84
2019-04-10T07:13:20.771Z,97350.39
2019-04-10T07:15:56.310Z,97346.41
2019-04-10T07:18:26.564Z,97348.30
2019-04-10T07:21:01.521Z,97349.31
2019-04-10T07:23:33.504Z,97352.44
2019-04-10T07:26:06.075Z,97350.47
2019-04-10T07:28:41.666Z,97340.10
2019-04-10T07:31:13.042Z,97347.91
2019-04-10T07:33:50.124Z,97350.03
2019-04-10T07:36:20.273Z,97358.09
2019-04-10T07:38:55.659Z,97358.72
2019-04-10T07:41:26.543Z,97363.80
2019-04-10T07:43:58.772Z,97356.02
2019-04-10T07:46:31.213Z,97358.71
2019-04-10T07:49:03.628Z,97360.11
2019-04-10T07:51:36.673Z,97363.20
2019-04-10T07:54:08.726Z,97361.59
2019-04-10T07:56:41.794Z,97368.83
2019-04-10T07:59:13.876Z,97361.29
2019-04-10T08:01:45.869Z,97366.91
2019-04-10T08:04:18.269Z,97364.67
2019-04-10T08:06:50.404Z,97362.70
2019-04-10T08:09:22.372Z,97358.09
2019-04-10T08:11:54.466Z,97369.61
2019-04-10T08:14:27.448Z,97363.20
2019-04-10T08:16:59.640Z,97361.73
2019-04-10T08:19:32.737Z,97363.70
2019-04-10T08:22:04.851Z,97368.16
2019-04-10T08:24:36.834Z,97368.31
2019-04-10T08:27:10.295Z,97367.31
2019-04-10T08:29:42.871Z,97371.34
2019-04-10T08:32:15.976Z,97375.47
2019-04-10T08:34:48.806Z,97376.95
2019-04-10T08:37:21.903Z,97376.20
2019-04-10T08:39:54.769Z,97382.59
2019-04-10T08:42:26.922Z,97373.11
2019-04-10T08:44:58.905Z,97380.80
2019-04-10T08:47:31.320Z,97380.23
2019-04-10T08:50:05.557Z,97382.53
2019-04-10T08:52:37.658Z,97378.15
2019-04-10T08:55:11.073Z,97389.83
2019-04-10T08:57:43.831Z,97387.46
2019-04-10T09:00:16.457Z,97389.00
2019-04-10T09:02:48.703Z,97392.42
2019-04-10T09:05:21.691Z,97382.98
2019-04-10T09:07:54.698Z,97388.66
2019-04-10T09:10:26.797Z,97381.59
2019-04-10T09:12:59.944Z,97384.64
2019-04-10T09:15:32.230Z,97390.97
2019-04-10T09:18:04.199Z,97387.85
2019-04-10T09:20:36.211Z,97389.94
2019-04-10T09:23:33.281Z,97391.76
2019-04-10T09:25:42.100Z,97390.26
2019-04-10T09:28:14.158Z,97393.23
2019-04-10T09:30:46.212Z,97386.11
2019-04-10T09:33:24.191Z,97399.38
2019-04-10T09:35:52.986Z,97395.67
2019-04-10T09:38:25.132Z,97398.52
2019-04-10T09:40:57.458Z,97397.97
2019-04-10T09:43:29.682Z,97400.80
2019-04-10T09:46:02.323Z,97398.98
2019-04-10T09:48:34.340Z,97401.13
2019-04-10T09:51:07.529Z,97392.02
2019-04-10T09:53:39.586Z,97393.83
2019-04-10T09:56:11.776Z,97397.34
2019-04-10T09:58:44.786Z,97401.34
2019-04-10T10:01:17.888Z,97403.08
2019-04-10T10:03:50.841Z,97403.88
2019-04-10T10:06:28.724Z,97394.23
2019-04-10T10:08:56.979Z,97397.50
2019-04-10T10:11:28.969Z,97390.53
2019-04-10T10:14:01.884Z,97390.34
2019-04-10T10:16:33.958Z,97391.59
2019-04-10T10:19:05.897Z,97387.24
2019-04-10T10:21:38.833Z,97392.20
2019-04-10T10:24:10.864Z,97384.52
2019-04-10T10:26:45.751Z,97386.28
2019-04-10T10:29:17.665Z,97386.69
2019-04-10T10:31:51.970Z,97388.32
2019-04-10T10:34:23.634Z,97390.25
2019-04-10T10:36:55.952Z,97381.83
2019-04-10T10:39:28.587Z,97383.18
2019-04-10T10:42:00.724Z,97388.30
2019-04-10T10:44:32.673Z,97388.30
2019-04-10T10:47:04.745Z,97385.42
2019-04-10T10:49:36.825Z,97390.83
2019-04-10T10:52:09.035Z,97394.48
2019-04-10T10:54:41.190Z,97388.04
2019-04-10T10:57:13.243Z,97385.95
2019-04-10T10:59:46.067Z,97384.84
2019-04-10T11:02:19.206Z,97393.34
2019-04-10T11:04:51.722Z,97394.05
2019-04-10T11:07:24.542Z,97389.06
2019-04-10T11:09:56.902Z,97392.73
2019-04-10T11:12:30.373Z,97388.91
2019-04-10T11:15:03.670Z,97386.47
2019-04-10T11:17:35.980Z,97388.36
2019-04-10T11:20:10.365Z,97392.58
2019-04-10T11:22:42.558Z,97381.27
2019-04-10T11:25:15.705Z,97393.84
2019-04-10T11:27:47.904Z,97383.71
2019-04-10T11:30:20.620Z,97387.01
2019-04-10T11:32:52.745Z,97385.41
2019-04-10T11:35:24.738Z,97371.15
2019-04-10T11:38:00.607Z,97377.52
2019-04-10T11:40:31.797Z,97374.36
2019-04-10T11:43:05.330Z,97368.77
2019-04-10T11:45:43.036Z,97376.27
2019-04-10T11:48:12.931Z,97374.34
2019-04-10T11:50:46.158Z,97370.59
2019-04-10T11:53:19.119Z,97369.05
2019-04-10T11:55:53.640Z,97372.39
2019-04-10T11:58:28.193Z,97375.08
2019-04-10T12:01:00.129Z,97381.64
2019-04-10T12:03:34.541Z,97384.72
2019-04-10T12:06:06.943Z,97378.21
2019-04-10T12:09:04.345Z,97382.64
2019-04-10T12:11:15.986Z,97389.61
2019-04-10T12:13:46.689Z,97391.38
2019-04-10T12:16:18.928Z,97394.25
2019-04-10T12:18:50.986Z,97390.80
2019-04-10T12:21:23.993Z,97392.67
2019-04-10T12:23:56.936Z,97397.17
2019-04-10T12:26:29.092Z,97394.34
2019-04-10T12:29:01.095Z,97399.55
2019-04-10T12:31:33.641Z,97403.89
2019-04-10T12:34:06.738Z,97404.52
2019-04-10T12:36:38.946Z,97408.82
2019-04-10T12:39:12.005Z,97408.68
2019-04-10T12:41:44.174Z,97403.63
2019-04-10T12:44:16.146Z,97407.14
2019-04-10T12:46:49.112Z,97401.77
2019-04-10T12:49:21.386Z,97402.72
2019-04-10T12:51:54.101Z,97398.94
2019-04-10T12:54:26.245Z,97403.63
2019-04-10T12:56:58.828Z,97405.34
2019-04-10T12:59:31.158Z,97411.39
2019-04-10T13:02:03.273Z,97410.46
2019-04-10T13:04:35.257Z,97414.63
2019-04-10T13:07:07.490Z,97408.83
2019-04-10T13:09:40.173Z,97409.61
2019-04-10T13:12:13.174Z,97418.40
2019-04-10T13:14:46.447Z,97410.36
2019-04-10T13:17:20.050Z,97408.76
2019-04-10T13:19:53.390Z,97403.80
2019-04-10T13:22:26.446Z,97406.04
2019-04-10T13:24:59.572Z,97406.04
2019-04-10T13:27:31.651Z,97406.49
2019-04-10T13:30:07.114Z,97405.96
2019-04-10T13:32:40.049Z,97403.39
2019-04-10T13:35:13.650Z,97400.13
2019-04-10T13:37:45.763Z,97404.38
2019-04-10T13:40:17.743Z,97405.30
2019-04-10T13:42:49.796Z,97400.16
2019-04-10T13:45:21.771Z,97406.86
2019-04-10T13:47:54.638Z,97405.75
2019-04-10T13:50:26.870Z,97404.67
2019-04-10T13:52:59.649Z,97405.57
2019-04-10T13:55:32.689Z,97408.70
2019-04-10T13:58:04.929Z,97407.96
2019-04-10T14:00:40.560Z,97407.34
2019-04-10T14:03:12.775Z,97410.89
2019-04-10T14:05:45.073Z,97411.20
2019-04-10T14:08:18.658Z,97403.73
2019-04-10T14:10:50.918Z,97412.09
2019-04-10T14:13:23.975Z,97412.34
2019-04-10T14:15:56.143Z,97415.06
2019-04-10T14:18:28.158Z,97411.50
2019-04-10T14:21:00.168Z,97422.22
2019-04-10T14:23:33.265Z,97421.39
2019-04-10T14:26:45.794Z,97420.73
2019-04-10T14:29:14.371Z,97415.14
2019-04-10T14:31:51.192Z,97416.92
2019-04-10T14:34:23.306Z,97429.57
2019-04-10T14:36:55.309Z,97425.70
2019-04-10T14:39:27.681Z,97433.85
2019-04-10T14:42:00.153Z,97430.50
2019-04-10T14:44:32.718Z,97433.85
2019-04-10T14:47:04.885Z,97439.20
2019-04-10T14:49:37.583Z,97433.08
2019-04-10T14:52:10.660Z,97444.25
2019-04-10T14:54:43.863Z,97442.51
2019-04-10T14:57:16.923Z,97437.97
2019-04-10T14:59:49.299Z,97448.02
2019-04-10T15:02:22.252Z,97446.92
2019-04-10T15:04:54.495Z,97444.34
2019-04-10T15:07:26.819Z,97445.77
2019-04-10T15:09:59.095Z,97451.62
2019-04-10T15:12:32.212Z,97445.86
2019-04-10T15:15:04.584Z,97443.95
2019-04-10T15:17:36.622Z,97456.63
2019-04-10T15:20:09.016Z,97462.23
2019-04-10T15:22:42.133Z,97460.96
2019-04-10T15:25:15.056Z,97463.28
2019-04-10T15:27:47.280Z,97461.01
2019-04-10T15:30:20.222Z,97455.17
2019-04-10T15:32:52.290Z,97453.95
2019-04-10T15:35:24.437Z,97453.73
2019-04-10T15:37:57.558Z,97457.50
2019-04-10T15:40:30.323Z,97457.92
2019-04-10T15:43:02.946Z,97457.84
2019-04-10T15:45:35.735Z,97458.05
2019-04-10T15:48:08.310Z,97461.82
2019-04-10T15:50:41.426Z,97463.84
2019-04-10T15:53:13.821Z,97464.75
2019-04-10T15:55:45.897Z,97461.48
2019-04-10T15:58:17.917Z,97467.43
2019-04-10T16:00:50.282Z,97469.20
2019-04-10T16:03:22.557Z,97467.86
2019-04-10T16:05:55.743Z,97465.78
2019-04-10T16:08:28.164Z,97468.31
2019-04-10T16:11:08.140Z,97465.53
2019-04-10T16:13:42.702Z,97468.03
2019-04-10T16:16:52.910Z,97476.20
2019-04-10T16:19:51.324Z,97471.37
2019-04-10T16:22:33.386Z,97473.53
2019-04-10T16:25:15.798Z,97483.27
2019-04-10T16:27:47.945Z,97482.09
2019-04-10T16:30:22.762Z,97485.19
2019-04-10T16:32:54.777Z,97499.89
2019-04-10T16:35:27.365Z,97494.63
2019-04-10T16:38:00.219Z,97494.70
2019-04-10T16:40:33.926Z,97497.81
2019-04-10T16:43:07.665Z,97493.57
2019-04-10T16:45:40.642Z,97503.63
2019-04-10T16:48:13.097Z,97508.41
2019-04-10T16:50:45.667Z,97501.88
2019-04-10T16:53:18.102Z,97514.12
2019-04-10T16:55:51.219Z,97510.98
2019-04-10T16:58:23.561Z,97507.48
2019-04-10T17:00:55.877Z,97504.86
2019-04-10T17:03:27.995Z,97510.64
2019-04-10T17:06:00.009Z,97520.24
2019-04-10T17:08:32.240Z,97523.20
2019-04-10T17:11:05.058Z,97524.20
2019-04-10T17:13:38.376Z,97524.66
2019-04-10T17:16:10.551Z,97524.02
2019-04-10T17:18:43.444Z,97528.23
2019-04-10T17:21:15.534Z,97529.73
2019-04-10T17:23:47.571Z,97527.37
2019-04-10T17:26:19.610Z,97529.89
2019-04-10T17:28:52.495Z,97534.36
2019-04-10T17:31:24.758Z,97537.80
2019-04-10T17:33:56.817Z,97542.09
2019-04-10T17:36:29.329Z,97534.97
2019-04-10T17:39:02.844Z,97540.97
2019-04-10T17:41:35.424Z,97544.80
2019-04-10T17:44:07.751Z,97549.08
2019-04-10T17:46:39.816Z,97552.85
2019-04-10T17:49:12.165Z,97552.52
2019-04-10T17:51:44.299Z,97553.16
2019-04-10T17:54:16.306Z,97557.38
2019-04-10T17:56:48.537Z,97561.37
2019-04-10T17:59:20.737Z,97566.64
2019-04-10T18:01:53.557Z,97561.79
2019-04-10T18:04:26.284Z,97564.63
2019-04-10T18:06:59.557Z,97570.70
2019-04-10T18:09:32.715Z,97571.89
2019-04-10T18:12:06.043Z,97575.20
2019-04-10T18:14:40.640Z,97579.81
2019-04-10T18:17:12.111Z,97579.59
2019-04-10T18:19:44.185Z,97580.28
2019-04-10T18:22:16.413Z,97591.13
2019-04-10T18:24:49.492Z,97588.44
2019-04-10T18:27:22.497Z,97594.94
2019-04-10T18:29:55.177Z,97593.98
2019-04-10T18:32:27.599Z,97595.27
2019-04-10T18:35:00.458Z,97603.17
2019-04-10T18:37:32.901Z,97608.16
2019-04-10T18:40:05.351Z,97606.97
2019-04-10T18:42:38.534Z,97621.28
2019-04-10T18:45:11.304Z,97615.05
2019-04-10T18:47:44.077Z,97620.09
2019-04-10T18:50:18.287Z,97626.61
2019-04-10T18:52:50.467Z,97625.51
2019-04-10T18:55:22.631Z,97628.74
2019-04-10T18:58:45.911Z,97633.59
2019-04-10T19:01:40.725Z,97633.06
2019-04-10T19:04:16.888Z,97644.44
2019-04-10T19:06:54.443Z,97645.66
2019-04-10T19:09:34.887Z,97648.95
2019-04-10T19:12:07.096Z,97647.83
2019-04-10T19:14:39.169Z,97651.16
2019-04-10T19:17:11.315Z,97643.59
2019-04-10T19:19:43.976Z,97649.35
2019-04-10T19:22:18.105Z,97653.08
2019-04-10T19:24:50.364Z,97653.08
2019-04-10T19:27:22.430Z,97654.33
2019-04-10T19:29:54.984Z,97660.17
2019-04-10T19:32:35.525Z,97660.08
2019-04-10T19:35:07.775Z,97663.91
2019-04-10T19:37:40.806Z,97662.89
2019-04-10T19:40:13.864Z,97662.23
2019-04-10T19:42:46.178Z,97668.48
2019-04-10T19:45:19.444Z,97661.87
2019-04-10T19:47:52.807Z,97663.88
2019-04-10T19:50:25.514Z,97658.60
2019-04-10T19:52:57.789Z,97662.19
2019-04-10T19:55:29.952Z,97662.65
2019-04-10T19:58:02.139Z,97665.93
2019-04-10T20:00:36.723Z,97668.48
2019-04-10T20:03:08.958Z,97670.42
2019-04-10T20:05:41.487Z,97670.42
2019-04-10T20:08:13.755Z,97672.43
2019-04-10T20:10:45.843Z,97673.47
2019-04-10T20:13:18.699Z,97681.64
2019-04-10T20:15:51.010Z,97689.16
2019-04-10T20:18:23.014Z,97697.09
2019-04-10T20:20:55.490Z,97693.15
2019-04-10T20:23:27.914Z,97695.05
2019-04-10T20:26:00.984Z,97698.27
2019-04-10T20:28:33.338Z,97698.43
2019-04-10T20:31:08.848Z,97702.98
2019-04-10T20:33:41.075Z,97705.29
2019-04-10T20:36:13.164Z,97712.19
2019-04-10T20:38:45.185Z,97714.50
2019-04-10T20:41:18.233Z,97720.27
2019-04-10T20:43:51.197Z,97722.52
2019-04-10T20:46:24.330Z,97716.74
2019-04-10T20:48:57.165Z,97715.55
2019-04-10T20:51:30.415Z,97726.25
2019-04-10T20:54:02.518Z,97718.89
2019-04-10T20:56:34.866Z,97728.02
2019-04-10T20:59:07.717Z,97729.14
2019-04-10T21:01:39.963Z,97727.36
2019-04-10T21:04:12.812Z,97726.88
2019-04-10T21:06:46.034Z,97733.28
2019-04-10T21:09:19.125Z,97739.31
2019-04-10T21:12:01.995Z,97734.65
2019-04-10T21:14:25.200Z,97731.31
2019-04-10T21:16:58.228Z,97730.84
2019-04-10T21:19:31.292Z,97739.59
2019-04-10T21:22:03.775Z,97739.59
2019-04-10T21:24:35.887Z,97730.63
2019-04-10T21:27:09.052Z,97736.14
2019-04-10T21:30:05.266Z,97745.92
2019-04-10T21:32:47.490Z,97744.55
2019-04-10T21:35:23.695Z,97740.71
2019-04-10T21:37:56.869Z,97747.00
2019-04-10T21:40:28.952Z,97752.80
2019-04-10T21:43:01.591Z,97752.70
2019-04-10T21:45:34.909Z,97747.34
2019-04-10T21:48:08.287Z,97747.17
2019-04-10T21:50:40.427Z,97745.05
2019-04-10T21:53:12.426Z,97749.58
2019-04-10T21:55:44.447Z,97748.70
2019-04-10T21:58:16.494Z,97745.97
2019-04-10T22:00:57.037Z,97749.52
2019-04-10T22:03:29.585Z,97753.28
2019-04-10T22:06:28.109Z,97746.84
2019-04-10T22:09:18.791Z,97753.63
2019-04-10T22:11:53.129Z,97760.02
2019-04-10T22:14:26.107Z,97763.02
2019-04-10T22:16:58.301Z,97765.11
2019-04-10T22:19:30.465Z,97766.67
2019-04-10T22:22:02.523Z,97767.26
2019-04-10T22:24:34.503Z,97776.81
2019-04-10T22:27:07.129Z,97782.53
2019-04-10T22:29:39.180Z,97789.78
2019-04-10T22:32:11.179Z,97787.05
2019-04-10T22:34:44.215Z,97788.66
2019-04-10T22:37:16.951Z,97789.27
2019-04-10T22:39:49.113Z,97790.62
2019-04-10T22:42:33.884Z,97797.61
2019-04-10T22:44:56.108Z,97794.00
2019-04-10T22:47:28.121Z,97792.72
2019-04-10T22:50:00.787Z,97790.41
2019-04-10T22:52:32.912Z,97794.81
2019-04-10T22:55:04.906Z,97800.22
2019-04-10T22:57:37.744Z,97799.45
2019-04-10T23:00:13.866Z,97795.52
2019-04-10T23:02:46.556Z,97799.84
2019-04-10T23:05:18.778Z,97792.30
2019-04-10T23:07:51.384Z,97797.88
2019-04-10T23:10:24.623Z,97805.84
2019-04-10T23:13:01.677Z,97806.63
2019-04-10T23:15:31.404Z,97808.59
2019-04-10T23:18:03.460Z,97810.93
2019-04-10T23:20:36.249Z,97810.55
2019-04-10T23:23:08.542Z,97809.47
2019-04-10T23:25:40.667Z,97820.40
2019-04-10T23:28:13.538Z,97820.69
2019-04-10T23:30:45.634Z,97816.35
2019-04-10T23:33:17.674Z,97818.81
2019-04-10T23:35:49.697Z,97827.05
2019-04-10T23:38:21.649Z,97832.73
2019-04-10T23:40:53.603Z,97830.75
2019-04-10T23:43:25.562Z,97832.14
2019-04-10T23:45:57.856Z,97837.74
2019-04-10T23:48:30.804Z,97840.38
2019-04-10T23:51:03.022Z,97838.70
2019-04-10T23:53:35.004Z,97840.94
2019-04-10T23:56:06.948Z,97842.13
2019-04-10T23:58:38.914Z,97845.83
